createdAt,value
2023-05-02T00:01:18.867Z,10.23
2023-05-02T00:04:20.858Z,10.40
2023-05-02T00:07:22.836Z,11.52
2023-05-02T00:10:24.358Z,9.95
2023-05-02T00:13:25.910Z,9.55
2023-05-02T00:16:27.494Z,13.10
2023-05-02T00:19:29.005Z,9.30
2023-05-02T00:22:30.584Z,8.95
2023-05-02T00:25:32.067Z,10.73
2023-05-02T00:28:33.566Z,9.27
2023-05-02T00:31:35.798Z,10.45
2023-05-02T00:34:37.335Z,9.68
2023-05-02T00:37:39.230Z,10.57
2023-05-02T00:40:48.167Z,9.90
2023-05-02T00:43:49.709Z,10.77
2023-05-02T00:46:52.783Z,9.07
2023-05-02T00:49:54.390Z,10.67
2023-05-02T00:52:55.950Z,9.93
2023-05-02T00:56:01.817Z,9.98
2023-05-02T00:59:04.778Z,12.68
2023-05-02T01:02:26.295Z,9.23
2023-05-02T01:05:38.337Z,9.68
2023-05-02T01:08:48.391Z,9.15
2023-05-02T01:12:08.980Z,10.25
2023-05-02T01:15:19.143Z,11.75
2023-05-02T01:18:24.531Z,10.07
2023-05-02T01:21:28.001Z,10.38
2023-05-02T01:24:35.668Z,10.43
2023-05-02T01:28:09.362Z,10.38
2023-05-02T01:31:12.061Z,10.95
2023-05-02T01:34:13.691Z,9.35
2023-05-02T01:37:18.400Z,9.85
2023-05-02T01:40:22.474Z,9.45
2023-05-02T01:46:31.449Z,9.02
2023-05-02T01:49:34.873Z,9.23
2023-05-02T01:52:37.263Z,9.77
2023-05-02T01:55:40.814Z,11.15
2023-05-02T01:58:44.277Z,10.18
2023-05-02T02:01:46.773Z,9.55
2023-05-02T02:04:49.149Z,10.68
2023-05-02T02:07:50.782Z,11.98
2023-05-02T02:10:59.385Z,9.23
2023-05-02T02:14:06.769Z,10.82
2023-05-02T02:17:15.150Z,10.80
2023-05-02T02:20:17.729Z,8.80
2023-05-02T02:23:23.212Z,9.18
2023-05-02T02:26:24.773Z,9.23
2023-05-02T02:29:26.606Z,14.77
2023-05-02T02:32:28.099Z,12.90
2023-05-02T02:35:37.498Z,9.73
2023-05-02T02:38:48.144Z,10.90
2023-05-02T02:42:32.675Z,10.50
2023-05-02T02:45:38.344Z,9.73
2023-05-02T02:49:01.026Z,9.30
2023-05-02T02:52:10.535Z,12.07
2023-05-02T02:55:38.994Z,12.00
2023-05-02T02:58:54.557Z,10.30
2023-05-02T03:02:07.224Z,10.18
2023-05-02T03:05:10.437Z,10.85
2023-05-02T03:08:12.001Z,10.00
2023-05-02T03:11:13.779Z,10.00
2023-05-02T03:14:15.530Z,9.90
2023-05-02T03:17:16.989Z,11.05
2023-05-02T03:20:18.990Z,12.25
2023-05-02T03:23:20.538Z,9.40
2023-05-02T03:26:22.863Z,9.70
2023-05-02T03:29:26.491Z,10.63
2023-05-02T03:32:28.016Z,11.07
2023-05-02T03:35:29.988Z,10.00
2023-05-02T03:38:31.523Z,11.68
2023-05-02T03:41:38.031Z,11.23
2023-05-02T03:44:42.897Z,10.57
2023-05-02T03:47:44.441Z,11.52
2023-05-02T03:50:47.652Z,14.55
2023-05-02T03:53:49.174Z,12.73
2023-05-02T03:56:50.807Z,15.73
2023-05-02T03:59:58.729Z,12.65
2023-05-02T04:03:03.122Z,12.00
2023-05-02T04:06:05.974Z,12.82
2023-05-02T04:09:07.906Z,12.25
2023-05-02T04:12:31.970Z,10.60
2023-05-02T04:15:33.487Z,11.15
2023-05-02T04:18:35.820Z,10.77
2023-05-02T04:21:40.300Z,11.32
2023-05-02T04:24:42.268Z,11.35
2023-05-02T04:27:43.885Z,10.23
2023-05-02T04:30:52.033Z,11.15
2023-05-02T04:33:56.345Z,11.65
2023-05-02T04:37:01.476Z,11.38
2023-05-02T04:40:03.741Z,11.43
2023-05-02T04:43:06.305Z,11.55
2023-05-02T04:46:18.443Z,12.13
2023-05-02T04:49:20.635Z,12.00
2023-05-02T04:52:22.134Z,12.73
2023-05-02T04:55:23.726Z,13.38
2023-05-02T04:58:25.226Z,14.98
2023-05-02T05:01:33.334Z,12.52
2023-05-02T05:04:36.516Z,11.95
2023-05-02T05:07:39.267Z,11.52
2023-05-02T05:10:41.075Z,11.27
2023-05-02T05:13:43.500Z,15.68
2023-05-02T05:16:46.856Z,11.43
2023-05-02T05:19:48.533Z,12.25
2023-05-02T05:22:50.400Z,18.45
2023-05-02T05:25:53.660Z,12.15
2023-05-02T05:28:55.227Z,12.77
2023-05-02T05:31:59.327Z,13.23
2023-05-02T05:35:02.306Z,12.10
2023-05-02T05:38:04.002Z,12.68
2023-05-02T05:41:08.989Z,12.52
2023-05-02T05:44:12.713Z,14.07
2023-05-02T05:47:19.579Z,14.40
2023-05-02T05:50:21.437Z,12.65
2023-05-02T05:53:23.174Z,14.10
2023-05-02T05:56:25.653Z,15.18
2023-05-02T05:59:36.144Z,12.07
2023-05-02T06:02:38.768Z,12.18
2023-05-02T06:05:41.059Z,13.10
2023-05-02T06:08:42.790Z,12.23
2023-05-02T06:11:44.545Z,11.95
2023-05-02T06:14:46.465Z,14.00
2023-05-02T06:17:51.309Z,11.55
2023-05-02T06:20:52.858Z,10.88
2023-05-02T06:23:54.710Z,11.73
2023-05-02T06:26:56.237Z,12.48
2023-05-02T06:29:57.952Z,11.85
2023-05-02T06:32:59.715Z,20.38
2023-05-02T06:36:02.167Z,17.38
2023-05-02T06:39:03.973Z,17.70
2023-05-02T06:42:05.487Z,16.88
2023-05-02T06:45:08.632Z,19.02
2023-05-02T06:48:10.450Z,15.25
2023-05-02T06:51:14.626Z,16.25
2023-05-02T06:54:16.322Z,17.55
2023-05-02T06:57:17.879Z,21.30
2023-05-02T07:00:20.220Z,20.30
2023-05-02T07:03:21.958Z,20.83
2023-05-02T07:06:24.258Z,19.13
2023-05-02T07:09:25.798Z,19.38
2023-05-02T07:12:27.334Z,19.25
2023-05-02T07:15:28.854Z,18.67
2023-05-02T07:18:30.405Z,20.58
2023-05-02T07:21:32.425Z,21.20
2023-05-02T07:24:33.856Z,19.58
2023-05-02T07:27:35.460Z,19.35
2023-05-02T07:30:36.958Z,17.92
2023-05-02T07:33:38.387Z,17.40
2023-05-02T07:36:39.954Z,18.02
2023-05-02T07:39:41.478Z,16.65
2023-05-02T07:42:44.248Z,17.52
2023-05-02T07:45:45.794Z,24.52
2023-05-02T07:48:47.289Z,19.48
2023-05-02T07:51:48.809Z,19.58
2023-05-02T07:54:54.002Z,20.55
2023-05-02T07:57:56.012Z,21.23
2023-05-02T08:00:57.653Z,22.38
2023-05-02T08:03:59.401Z,19.08
2023-05-02T08:07:01.298Z,20.27
2023-05-02T08:10:03.120Z,19.35
2023-05-02T08:13:04.880Z,19.02
2023-05-02T08:16:06.582Z,18.38
2023-05-02T08:19:08.293Z,17.35
2023-05-02T08:22:09.887Z,17.58
2023-05-02T08:25:11.390Z,17.27
2023-05-02T08:28:13.212Z,16.10
2023-05-02T08:31:14.931Z,17.25
2023-05-02T08:34:16.793Z,17.08
2023-05-02T08:37:18.472Z,16.80
2023-05-02T08:40:33.623Z,15.00
2023-05-02T08:43:42.326Z,16.67
2023-05-02T08:46:44.895Z,14.50
2023-05-02T08:49:47.077Z,14.77
2023-05-02T08:52:50.647Z,13.70
2023-05-02T08:55:52.113Z,13.32
2023-05-02T08:58:53.620Z,13.95
2023-05-02T09:02:00.790Z,13.48
2023-05-02T09:05:07.443Z,10.95
2023-05-02T09:08:09.178Z,11.40
2023-05-02T09:11:12.445Z,13.45
2023-05-02T09:14:16.032Z,13.07
2023-05-02T09:17:17.590Z,11.80
2023-05-02T09:20:19.063Z,10.80
2023-05-02T09:23:20.603Z,14.05
2023-05-02T09:26:31.062Z,11.63
2023-05-02T09:29:38.753Z,11.27
2023-05-02T09:32:48.063Z,10.80
2023-05-02T09:35:54.683Z,11.00
2023-05-02T09:39:10.214Z,11.13
2023-05-02T09:42:11.948Z,15.60
2023-05-02T09:45:24.078Z,11.40
2023-05-02T09:48:27.112Z,11.18
2023-05-02T09:51:28.615Z,11.85
2023-05-02T09:54:37.042Z,12.13
2023-05-02T09:57:41.832Z,12.13
2023-05-02T10:00:45.358Z,10.90
2023-05-02T10:03:48.229Z,11.45
2023-05-02T10:06:51.780Z,11.48
2023-05-02T10:09:54.898Z,11.10
2023-05-02T10:12:56.561Z,11.13
2023-05-02T10:16:03.270Z,11.13
2023-05-02T10:19:09.903Z,12.30
2023-05-02T10:22:13.072Z,10.20
2023-05-02T10:25:15.008Z,10.83
2023-05-02T10:28:16.875Z,10.23
2023-05-02T10:31:18.972Z,10.57
2023-05-02T10:34:22.131Z,11.48
2023-05-02T10:37:27.605Z,11.77
2023-05-02T10:40:29.602Z,9.35
2023-05-02T10:43:33.938Z,9.55
2023-05-02T10:46:37.411Z,9.57
2023-05-02T10:49:51.451Z,8.75
2023-05-02T10:52:53.104Z,9.70
2023-05-02T10:56:13.131Z,9.63
2023-05-02T10:59:28.962Z,8.68
2023-05-02T11:02:30.973Z,9.95
2023-05-02T11:05:37.001Z,12.55
2023-05-02T11:08:38.686Z,11.40
2023-05-02T11:11:43.201Z,11.77
2023-05-02T11:14:47.488Z,11.80
2023-05-02T11:18:07.691Z,10.95
2023-05-02T11:21:28.575Z,11.32
2023-05-02T11:24:40.058Z,11.90
2023-05-02T11:27:43.756Z,11.35
2023-05-02T11:30:48.466Z,11.20
2023-05-02T11:34:03.505Z,12.10
2023-05-02T11:37:15.102Z,11.80
2023-05-02T11:40:16.846Z,10.52
2023-05-02T11:43:21.393Z,9.07
2023-05-02T11:46:23.143Z,8.27
2023-05-02T11:49:24.859Z,8.15
2023-05-02T11:52:26.542Z,9.75
2023-05-02T11:55:28.030Z,9.80
2023-05-02T11:58:34.606Z,10.20
2023-05-02T12:01:36.540Z,11.63
2023-05-02T12:04:44.785Z,12.07
2023-05-02T12:07:48.944Z,12.32
2023-05-02T12:10:52.337Z,12.30
2023-05-02T12:13:54.713Z,12.65
2023-05-02T12:16:58.354Z,12.48
2023-05-02T12:20:00.736Z,15.43
2023-05-02T12:23:04.054Z,12.43
2023-05-02T12:26:24.267Z,11.38
2023-05-02T12:29:45.171Z,11.23
2023-05-02T12:32:56.034Z,10.07
2023-05-02T12:36:06.770Z,9.65
2023-05-02T12:39:08.224Z,7.78
2023-05-02T12:42:17.442Z,9.15
2023-05-02T12:45:18.907Z,13.57
2023-05-02T12:48:25.781Z,11.65
2023-05-02T12:51:28.704Z,9.68
2023-05-02T12:54:30.344Z,10.77
2023-05-02T12:57:31.822Z,11.10
2023-05-02T13:00:36.732Z,10.75
2023-05-02T13:03:38.596Z,11.05
2023-05-02T13:06:40.635Z,10.77
2023-05-02T13:09:42.085Z,10.27
2023-05-02T13:12:47.994Z,8.27
2023-05-02T13:15:49.468Z,8.25
2023-05-02T13:18:51.180Z,9.23
2023-05-02T13:21:52.660Z,10.35
2023-05-02T13:24:54.389Z,8.88
2023-05-02T13:27:55.810Z,8.63
2023-05-02T13:30:57.269Z,10.65
2023-05-02T13:33:58.793Z,8.43
2023-05-02T13:37:00.756Z,8.68
2023-05-02T13:40:02.611Z,8.30
2023-05-02T13:43:04.352Z,8.45
2023-05-02T13:46:05.932Z,9.18
2023-05-02T13:49:07.396Z,10.10
2023-05-02T13:52:08.971Z,9.02
2023-05-02T13:55:10.428Z,7.50
2023-05-02T13:58:11.961Z,7.07
2023-05-02T14:01:13.452Z,6.72
2023-05-02T14:04:15.077Z,8.13
2023-05-02T14:07:16.621Z,8.00
2023-05-02T14:10:18.086Z,6.50
2023-05-02T14:13:19.557Z,8.55
2023-05-02T14:16:21.157Z,6.75
2023-05-02T14:19:22.928Z,7.18
2023-05-02T14:22:24.459Z,8.93
2023-05-02T14:25:26.088Z,9.80
2023-05-02T14:28:27.723Z,6.88
2023-05-02T14:31:29.290Z,5.88
2023-05-02T14:34:31.015Z,7.55
2023-05-02T14:37:32.493Z,7.82
2023-05-02T14:40:34.046Z,7.72
2023-05-02T14:43:36.297Z,6.47
2023-05-02T14:46:37.795Z,7.75
2023-05-02T14:49:39.275Z,6.32
2023-05-02T14:52:40.816Z,8.38
2023-05-02T14:55:42.261Z,6.70
2023-05-02T14:58:43.834Z,6.18
2023-05-02T15:01:45.735Z,6.25
2023-05-02T15:04:47.359Z,8.40
2023-05-02T15:07:48.857Z,6.25
2023-05-02T15:10:50.364Z,7.47
2023-05-02T15:13:51.892Z,6.47
2023-05-02T15:16:53.391Z,6.50
2023-05-02T15:19:56.443Z,6.65
2023-05-02T15:23:03.402Z,11.20
2023-05-02T15:26:05.134Z,9.50
2023-05-02T15:29:06.913Z,7.32
2023-05-02T15:32:09.123Z,10.75
2023-05-02T15:35:11.609Z,10.57
2023-05-02T15:38:14.113Z,8.30
2023-05-02T15:41:15.580Z,7.93
2023-05-02T15:44:17.279Z,8.48
2023-05-02T15:47:20.206Z,7.93
2023-05-02T15:50:23.610Z,12.25
2023-05-02T15:53:25.225Z,10.35
2023-05-02T15:56:26.784Z,8.48
2023-05-02T15:59:28.241Z,10.23
2023-05-02T16:02:29.717Z,9.30
2023-05-02T16:05:31.266Z,9.73
2023-05-02T16:08:32.726Z,10.88
2023-05-02T16:11:34.245Z,10.85
2023-05-02T16:14:36.300Z,9.48
2023-05-02T16:17:37.921Z,10.63
2023-05-02T16:20:39.628Z,9.63
2023-05-02T16:23:41.114Z,11.15
2023-05-02T16:26:42.565Z,9.80
2023-05-02T16:29:44.083Z,10.75
2023-05-02T16:32:45.772Z,10.50
2023-05-02T16:35:47.729Z,11.07
2023-05-02T16:38:49.212Z,10.77
2023-05-02T16:41:50.685Z,12.73
2023-05-02T16:44:52.166Z,10.95
2023-05-02T16:47:53.661Z,8.90
2023-05-02T16:50:57.172Z,9.20
2023-05-02T16:53:58.831Z,9.30
2023-05-02T16:57:02.610Z,8.53
2023-05-02T17:00:05.429Z,10.48
2023-05-02T17:03:07.492Z,11.52
2023-05-02T17:06:09.116Z,7.63
2023-05-02T17:09:10.611Z,10.52
2023-05-02T17:12:12.815Z,9.57
2023-05-02T17:15:14.373Z,8.60
2023-05-02T17:18:16.207Z,10.65
2023-05-02T17:21:17.774Z,8.57
2023-05-02T17:24:19.461Z,8.93
2023-05-02T17:27:20.974Z,7.63
2023-05-02T17:30:23.653Z,7.93
2023-05-02T17:33:27.371Z,8.05
2023-05-02T17:36:29.089Z,9.00
2023-05-02T17:39:30.678Z,7.95
2023-05-02T17:42:32.293Z,8.38
2023-05-02T17:45:33.824Z,7.97
2023-05-02T17:48:36.691Z,8.30
2023-05-02T17:51:38.163Z,7.82
2023-05-02T17:54:39.821Z,7.70
2023-05-02T17:57:41.446Z,7.22
2023-05-02T18:00:43.561Z,8.27
2023-05-02T18:03:45.367Z,7.10
2023-05-02T18:06:47.103Z,8.45
2023-05-02T18:09:48.576Z,7.85
2023-05-02T18:12:50.099Z,7.97
2023-05-02T18:16:04.749Z,7.78
2023-05-02T18:19:06.628Z,8.00
2023-05-02T18:22:08.531Z,7.93
2023-05-02T18:25:10.209Z,7.53
2023-05-02T18:28:13.245Z,7.75
2023-05-02T18:31:16.462Z,8.27
2023-05-02T18:34:18.757Z,8.30
2023-05-02T18:37:20.249Z,7.65
2023-05-02T18:40:21.917Z,7.70
2023-05-02T18:43:23.343Z,7.25
2023-05-02T18:46:25.051Z,7.88
2023-05-02T18:49:26.949Z,8.85
2023-05-02T18:52:30.826Z,9.02
2023-05-02T18:55:32.925Z,10.07
2023-05-02T18:58:34.903Z,9.45
2023-05-02T19:01:36.523Z,9.50
2023-05-02T19:04:38.026Z,9.80
2023-05-02T19:07:39.481Z,10.05
2023-05-02T19:10:41.312Z,11.35
2023-05-02T19:13:42.810Z,10.75
2023-05-02T19:16:44.716Z,9.90
2023-05-02T19:19:48.081Z,10.75
2023-05-02T19:22:50.005Z,9.35
2023-05-02T19:25:51.562Z,8.68
2023-05-02T19:28:53.172Z,9.85
2023-05-02T19:31:54.634Z,8.40
2023-05-02T19:34:56.768Z,8.27
2023-05-02T19:37:58.306Z,9.63
2023-05-02T19:41:00.793Z,9.60
2023-05-02T19:44:02.242Z,11.23
2023-05-02T19:47:03.890Z,11.07
2023-05-02T19:50:05.932Z,13.30
2023-05-02T19:53:07.481Z,10.75
2023-05-02T19:56:08.988Z,10.68
2023-05-02T19:59:10.514Z,11.45
2023-05-02T20:02:12.012Z,10.52
2023-05-02T20:05:13.585Z,10.40
2023-05-02T20:08:16.197Z,10.48
2023-05-02T20:11:17.631Z,10.38
2023-05-02T20:14:19.275Z,10.02
2023-05-02T20:17:20.935Z,10.70
2023-05-02T20:20:23.136Z,10.43
2023-05-02T20:23:30.808Z,13.23
2023-05-02T20:26:33.795Z,11.77
2023-05-02T20:29:35.555Z,11.38
2023-05-02T20:32:37.166Z,11.32
2023-05-02T20:35:38.688Z,13.88
2023-05-02T20:38:42.359Z,12.45
2023-05-02T20:41:45.249Z,12.23
2023-05-02T20:44:56.307Z,12.63
2023-05-02T20:47:57.755Z,16.35
2023-05-02T20:50:59.286Z,15.85
2023-05-02T20:54:00.814Z,14.27
2023-05-02T20:57:03.500Z,14.85
2023-05-02T21:00:06.256Z,14.00
2023-05-02T21:03:07.734Z,11.77
2023-05-02T21:06:09.328Z,12.93
2023-05-02T21:09:10.785Z,11.23
2023-05-02T21:12:12.277Z,12.57
2023-05-02T21:15:14.384Z,12.32
2023-05-02T21:18:15.975Z,11.15
2023-05-02T21:21:17.623Z,11.20
2023-05-02T21:24:19.123Z,11.82
2023-05-02T21:27:20.761Z,11.73
2023-05-02T21:30:24.196Z,11.85
2023-05-02T21:33:25.671Z,10.35
2023-05-02T21:36:27.341Z,10.93
2023-05-02T21:39:28.863Z,12.00
2023-05-02T21:42:30.401Z,9.95
2023-05-02T21:45:32.746Z,9.65
2023-05-02T21:48:34.343Z,9.77
2023-05-02T21:51:38.609Z,10.98
2023-05-02T21:54:40.268Z,8.80
2023-05-02T21:57:41.726Z,9.57
2023-05-02T22:00:43.328Z,10.35
2023-05-02T22:03:44.903Z,11.43
2023-05-02T22:06:51.351Z,10.55
2023-05-02T22:09:53.328Z,11.07
2023-05-02T22:12:55.391Z,12.45
2023-05-02T22:15:56.909Z,10.75
2023-05-02T22:18:58.410Z,11.50
2023-05-02T22:22:01.569Z,10.90
2023-05-02T22:25:03.121Z,10.98
2023-05-02T22:28:06.877Z,10.15
2023-05-02T22:31:08.754Z,10.35
2023-05-02T22:34:10.966Z,10.73
2023-05-02T22:37:12.565Z,11.05
2023-05-02T22:40:14.920Z,9.00
2023-05-02T22:43:16.812Z,10.35
2023-05-02T22:46:18.599Z,9.75
2023-05-02T22:49:20.490Z,10.27
2023-05-02T22:52:22.449Z,10.73
2023-05-02T22:55:24.211Z,10.02
2023-05-02T22:58:25.767Z,9.80
2023-05-02T23:01:28.191Z,10.45
2023-05-02T23:04:32.674Z,10.63
2023-05-02T23:07:34.108Z,10.35
2023-05-02T23:10:35.577Z,10.32
2023-05-02T23:13:37.048Z,11.45
2023-05-02T23:16:38.848Z,10.73
2023-05-02T23:19:40.583Z,9.85
2023-05-02T23:22:46.320Z,10.20
2023-05-02T23:25:47.821Z,10.90
2023-05-02T23:28:49.270Z,10.43
2023-05-02T23:31:53.410Z,9.43
2023-05-02T23:37:59.579Z,9.00
2023-05-02T23:41:01.124Z,9.45
2023-05-02T23:44:02.566Z,9.32
2023-05-02T23:47:04.200Z,15.27
2023-05-02T23:50:06.264Z,13.80
2023-05-02T23:53:07.738Z,11.48
2023-05-02T23:56:09.766Z,12.45
2023-05-02T23:59:11.268Z,13.00
